createdAt,value
2022-11-07T00:02:16.522Z,101302.02
2022-11-07T00:04:49.764Z,101303.39
2022-11-07T00:07:22.552Z,101310.73
2022-11-07T00:09:55.336Z,101310.67
2022-11-07T00:12:28.547Z,101309.97
2022-11-07T00:15:00.899Z,101309.13
2022-11-07T00:17:33.592Z,101309.56
2022-11-07T00:20:07.903Z,101309.02
2022-11-07T00:22:40.285Z,101306.30
2022-11-07T00:25:13.274Z,101307.14
2022-11-07T00:27:45.624Z,101306.88
2022-11-07T00:30:18.578Z,101309.91
2022-11-07T00:32:50.812Z,101307.29
2022-11-07T00:35:23.046Z,101306.13
2022-11-07T00:37:56.815Z,101308.60
2022-11-07T00:40:29.198Z,101301.41
2022-11-07T00:43:01.505Z,101303.23
2022-11-07T00:45:33.979Z,101307.16
2022-11-07T00:48:07.033Z,101304.46
2022-11-07T00:50:39.348Z,101300.89
2022-11-07T00:53:11.824Z,101303.90
2022-11-07T00:55:44.630Z,101300.19
2022-11-07T00:58:17.781Z,101300.76
2022-11-07T01:00:50.453Z,101307.52
2022-11-07T01:03:40.137Z,101300.87
2022-11-07T01:06:13.448Z,101299.51
2022-11-07T01:08:45.822Z,101295.55
2022-11-07T01:11:18.362Z,101293.11
2022-11-07T01:13:51.369Z,101295.42
2022-11-07T01:16:24.219Z,101295.50
2022-11-07T01:18:56.909Z,101293.29
2022-11-07T01:21:29.503Z,101291.08
2022-11-07T01:24:03.738Z,101292.73
2022-11-07T01:26:36.197Z,101293.91
2022-11-07T01:29:09.722Z,101297.65
2022-11-07T01:31:42.376Z,101293.77
2022-11-07T01:34:15.313Z,101290.20
2022-11-07T01:36:47.604Z,101288.42
2022-11-07T01:39:19.795Z,101294.05
2022-11-07T01:41:52.139Z,101294.98
2022-11-07T01:44:56.311Z,101294.35
2022-11-07T01:47:31.250Z,101293.92
2022-11-07T01:50:04.374Z,101294.73
2022-11-07T01:52:39.743Z,101293.52
2022-11-07T01:55:17.575Z,101295.70
2022-11-07T01:57:56.071Z,101294.81
2022-11-07T02:00:29.580Z,101296.11
2022-11-07T02:03:07.545Z,101299.10
2022-11-07T02:05:45.140Z,101296.69
2022-11-07T02:08:19.165Z,101295.73
2022-11-07T02:10:52.373Z,101299.58
2022-11-07T02:13:28.187Z,101302.03
2022-11-07T02:16:00.178Z,101303.52
2022-11-07T02:18:34.515Z,101297.30
2022-11-07T02:21:13.729Z,101294.07
2022-11-07T02:23:55.953Z,101290.64
2022-11-07T02:26:29.163Z,101294.75
2022-11-07T02:29:03.465Z,101299.13
2022-11-07T02:31:35.742Z,101299.54
2022-11-07T02:34:08.465Z,101298.55
2022-11-07T02:36:41.543Z,101297.58
2022-11-07T02:39:13.755Z,101300.97
2022-11-07T02:41:46.476Z,101294.79
2022-11-07T02:44:20.194Z,101295.21
2022-11-07T02:46:52.702Z,101294.99
2022-11-07T02:49:25.037Z,101290.51
2022-11-07T02:51:57.726Z,101286.69
2022-11-07T02:54:30.027Z,101293.35
2022-11-07T02:57:02.418Z,101293.01
2022-11-07T02:59:34.614Z,101299.20
2022-11-07T03:02:07.095Z,101307.05
2022-11-07T03:04:39.463Z,101313.63
2022-11-07T03:07:11.847Z,101316.14
2022-11-07T03:09:44.306Z,101313.77
2022-11-07T03:12:16.556Z,101314.17
2022-11-07T03:14:48.762Z,101312.00
2022-11-07T03:17:21.773Z,101306.63
2022-11-07T03:19:55.031Z,101308.86
2022-11-07T03:22:27.456Z,101306.66
2022-11-07T03:24:59.804Z,101308.73
2022-11-07T03:27:32.061Z,101308.21
2022-11-07T03:30:04.785Z,101308.45
2022-11-07T03:32:37.447Z,101309.06
2022-11-07T03:35:12.709Z,101310.38
2022-11-07T03:37:47.751Z,101312.27
2022-11-07T03:40:21.879Z,101308.36
2022-11-07T03:42:54.403Z,101308.02
2022-11-07T03:45:27.167Z,101306.50
2022-11-07T03:47:59.870Z,101309.38
2022-11-07T03:50:32.514Z,101307.42
2022-11-07T03:53:05.220Z,101309.86
2022-11-07T03:55:37.822Z,101308.77
2022-11-07T03:58:10.450Z,101303.09
2022-11-07T04:00:42.675Z,101304.08
2022-11-07T04:03:15.298Z,101303.89
2022-11-07T04:05:47.750Z,101301.36
2022-11-07T04:08:20.596Z,101303.69
2022-11-07T04:10:53.338Z,101305.19
2022-11-07T04:13:43.297Z,101299.13
2022-11-07T04:16:33.369Z,101300.22
2022-11-07T04:19:05.640Z,101298.31
2022-11-07T04:21:37.936Z,101294.91
2022-11-07T04:24:10.269Z,101297.86
2022-11-07T04:27:00.170Z,101296.17
2022-11-07T04:29:32.430Z,101295.13
2022-11-07T04:32:05.323Z,101298.02
2022-11-07T04:34:38.439Z,101298.80
2022-11-07T04:37:10.868Z,101299.73
2022-11-07T04:39:43.150Z,101295.64
2022-11-07T04:42:15.482Z,101300.14
2022-11-07T04:44:47.783Z,101299.64
2022-11-07T04:47:20.244Z,101294.09
2022-11-07T04:49:52.882Z,101295.51
2022-11-07T04:52:25.219Z,101302.38
2022-11-07T04:54:57.626Z,101303.20
2022-11-07T04:57:30.086Z,101305.23
2022-11-07T05:00:02.712Z,101303.20
2022-11-07T05:02:35.409Z,101304.02
2022-11-07T05:05:10.822Z,101308.81
2022-11-07T05:07:43.826Z,101313.55
2022-11-07T05:10:21.429Z,101310.61
2022-11-07T05:12:54.234Z,101316.46
2022-11-07T05:15:26.749Z,101318.35
2022-11-07T05:17:59.011Z,101323.73
2022-11-07T05:20:33.821Z,101321.63
2022-11-07T05:23:15.395Z,101323.29
2022-11-07T05:25:50.039Z,101327.23
2022-11-07T05:28:32.500Z,101331.88
2022-11-07T05:31:16.117Z,101330.70
2022-11-07T05:33:48.705Z,101331.30
2022-11-07T05:36:23.269Z,101335.29
2022-11-07T05:38:56.326Z,101339.16
2022-11-07T05:41:28.563Z,101340.43
2022-11-07T05:44:01.010Z,101341.89
2022-11-07T05:46:33.259Z,101344.80
2022-11-07T05:49:06.445Z,101343.95
2022-11-07T05:51:38.787Z,101350.27
2022-11-07T05:54:11.087Z,101353.95
2022-11-07T05:56:44.227Z,101358.21
2022-11-07T05:59:17.257Z,101362.23
2022-11-07T06:01:51.297Z,101360.03
2022-11-07T06:04:24.613Z,101366.50
2022-11-07T06:06:56.827Z,101370.49
2022-11-07T06:09:29.692Z,101369.64
2022-11-07T06:12:04.012Z,101370.64
2022-11-07T06:14:36.663Z,101373.65
2022-11-07T06:17:10.206Z,101385.84
2022-11-07T06:19:42.432Z,101387.42
2022-11-07T06:22:14.757Z,101395.53
2022-11-07T06:24:47.030Z,101405.41
2022-11-07T06:27:19.370Z,101407.15
2022-11-07T06:29:51.687Z,101410.75
2022-11-07T06:32:24.490Z,101413.05
2022-11-07T06:34:56.709Z,101415.76
2022-11-07T06:37:30.100Z,101419.81
2022-11-07T06:40:02.307Z,101420.27
2022-11-07T06:42:34.578Z,101423.06
2022-11-07T06:45:09.152Z,101422.04
2022-11-07T06:47:41.407Z,101422.06
2022-11-07T06:50:13.850Z,101426.66
2022-11-07T06:52:46.117Z,101429.86
2022-11-07T06:55:18.498Z,101429.05
2022-11-07T06:57:50.741Z,101433.16
2022-11-07T07:00:23.095Z,101434.64
2022-11-07T07:02:59.350Z,101435.65
2022-11-07T07:05:31.769Z,101438.13
2022-11-07T07:08:04.537Z,101437.23
2022-11-07T07:10:41.045Z,101430.36
2022-11-07T07:13:14.368Z,101425.67
2022-11-07T07:15:55.682Z,101428.51
2022-11-07T07:18:28.891Z,101430.24
2022-11-07T07:21:07.810Z,101427.66
2022-11-07T07:23:41.212Z,101432.37
2022-11-07T07:26:16.427Z,101432.89
2022-11-07T07:28:49.566Z,101435.32
2022-11-07T07:31:30.855Z,101440.15
2022-11-07T07:34:03.059Z,101439.49
2022-11-07T07:36:35.321Z,101441.08
2022-11-07T07:39:07.712Z,101442.98
2022-11-07T07:41:40.433Z,101447.51
2022-11-07T07:44:12.805Z,101446.34
2022-11-07T07:46:45.060Z,101450.75
2022-11-07T07:49:17.403Z,101449.61
2022-11-07T07:51:49.699Z,101451.10
2022-11-07T07:54:21.922Z,101454.80
2022-11-07T07:56:54.171Z,101456.30
2022-11-07T07:59:26.411Z,101458.28
2022-11-07T08:01:58.877Z,101455.79
2022-11-07T08:04:31.431Z,101453.34
2022-11-07T08:07:03.671Z,101456.22
2022-11-07T08:09:36.826Z,101457.38
2022-11-07T08:12:10.128Z,101452.61
2022-11-07T08:14:42.572Z,101458.41
2022-11-07T08:17:14.871Z,101462.25
2022-11-07T08:19:47.089Z,101465.98
2022-11-07T08:22:19.326Z,101464.88
2022-11-07T08:24:51.737Z,101471.14
2022-11-07T08:27:23.961Z,101473.94
2022-11-07T08:29:56.176Z,101473.36
2022-11-07T08:32:29.594Z,101468.30
2022-11-07T08:35:02.114Z,101468.77
2022-11-07T08:37:34.443Z,101472.02
2022-11-07T08:40:08.131Z,101469.80
2022-11-07T08:42:41.017Z,101465.67
2022-11-07T08:45:14.085Z,101462.39
2022-11-07T08:47:46.368Z,101462.88
2022-11-07T08:50:18.833Z,101461.89
2022-11-07T08:52:51.154Z,101460.35
2022-11-07T08:55:23.561Z,101458.39
2022-11-07T08:58:01.080Z,101461.50
2022-11-07T09:00:33.824Z,101462.52
2022-11-07T09:03:31.305Z,101463.11
2022-11-07T09:06:00.797Z,101472.05
2022-11-07T09:08:33.195Z,101470.62
2022-11-07T09:11:06.558Z,101472.41
2022-11-07T09:13:39.229Z,101470.73
2022-11-07T09:16:12.339Z,101468.80
2022-11-07T09:18:44.871Z,101464.73
2022-11-07T09:21:21.991Z,101464.68
2022-11-07T09:23:55.163Z,101459.20
2022-11-07T09:26:27.522Z,101456.35
2022-11-07T09:29:01.234Z,101456.40
2022-11-07T09:31:33.686Z,101456.65
2022-11-07T09:34:07.478Z,101456.04
2022-11-07T09:36:39.623Z,101454.73
2022-11-07T09:39:11.891Z,101449.23
2022-11-07T09:41:54.398Z,101445.45
2022-11-07T09:44:48.844Z,101442.79
2022-11-07T09:47:28.129Z,101434.71
2022-11-07T09:50:02.817Z,101437.54
2022-11-07T09:52:42.116Z,101431.91
2022-11-07T09:55:21.583Z,101426.79
2022-11-07T09:57:56.774Z,101423.13
2022-11-07T10:00:33.213Z,101422.54
2022-11-07T10:03:05.590Z,101425.97
2022-11-07T10:05:48.360Z,101422.67
2022-11-07T10:08:28.697Z,101419.41
2022-11-07T10:11:05.062Z,101417.39
2022-11-07T10:13:59.136Z,101416.59
2022-11-07T10:16:43.533Z,101409.88
2022-11-07T10:19:29.208Z,101403.67
2022-11-07T10:22:12.337Z,101398.69
2022-11-07T10:24:56.972Z,101401.56
2022-11-07T10:27:32.863Z,101393.28
2022-11-07T10:30:07.977Z,101391.08
2022-11-07T10:32:49.223Z,101383.98
2022-11-07T10:35:28.428Z,101378.75
2022-11-07T10:38:02.459Z,101372.27
2022-11-07T10:40:41.696Z,101377.09
2022-11-07T10:43:22.027Z,101374.14
2022-11-07T10:45:56.996Z,101366.04
2022-11-07T10:48:30.312Z,101362.08
2022-11-07T10:51:02.706Z,101358.70
2022-11-07T10:53:44.097Z,101354.08
2022-11-07T10:56:20.749Z,101345.98
2022-11-07T10:58:52.937Z,101342.90
2022-11-07T11:01:28.645Z,101337.90
2022-11-07T11:04:01.359Z,101337.41
2022-11-07T11:06:34.095Z,101333.17
2022-11-07T11:09:17.296Z,101329.51
2022-11-07T11:11:53.874Z,101321.48
2022-11-07T11:14:26.408Z,101319.16
2022-11-07T11:16:59.233Z,101315.96
2022-11-07T11:19:40.695Z,101320.51
2022-11-07T11:22:19.878Z,101315.05
2022-11-07T11:25:04.341Z,101317.40
2022-11-07T11:27:38.532Z,101308.89
2022-11-07T11:30:17.338Z,101309.42
2022-11-07T11:32:55.983Z,101309.23
2022-11-07T11:35:42.232Z,101306.48
2022-11-07T11:38:23.892Z,101305.59
2022-11-07T11:41:07.681Z,101305.30
2022-11-07T11:43:47.801Z,101299.52
2022-11-07T11:46:27.113Z,101304.09
2022-11-07T11:49:02.903Z,101305.67
2022-11-07T11:51:41.698Z,101304.77
2022-11-07T11:54:16.139Z,101305.50
2022-11-07T11:56:57.208Z,101301.51
2022-11-07T11:59:48.599Z,101299.05
2022-11-07T12:02:47.343Z,101298.63
2022-11-07T12:05:28.165Z,101296.23
2022-11-07T12:08:17.222Z,101298.48
2022-11-07T12:10:58.848Z,101293.08
2022-11-07T12:13:40.730Z,101293.80
2022-11-07T12:16:23.430Z,101288.77
2022-11-07T12:19:07.274Z,101284.98
2022-11-07T12:21:50.240Z,101284.79
2022-11-07T12:24:40.504Z,101282.56
2022-11-07T12:27:27.197Z,101280.45
2022-11-07T12:30:19.748Z,101278.88
2022-11-07T12:33:04.626Z,101277.23
2022-11-07T12:35:55.053Z,101273.60
2022-11-07T12:38:55.001Z,101272.95
2022-11-07T12:41:36.930Z,101272.73
2022-11-07T12:44:25.788Z,101273.27
2022-11-07T12:47:00.730Z,101269.33
2022-11-07T12:50:06.309Z,101270.61
2022-11-07T12:52:53.996Z,101263.51
2022-11-07T12:55:31.684Z,101266.23
2022-11-07T12:58:06.432Z,101260.39
2022-11-07T13:00:39.204Z,101259.39
2022-11-07T13:03:24.075Z,101257.84
2022-11-07T13:06:09.868Z,101254.45
2022-11-07T13:08:52.057Z,101252.67
2022-11-07T13:11:33.871Z,101253.72
2022-11-07T13:14:24.233Z,101255.80
2022-11-07T13:17:17.325Z,101255.33
2022-11-07T13:20:01.888Z,101258.30
2022-11-07T13:22:38.744Z,101257.85
2022-11-07T13:25:26.355Z,101256.06
2022-11-07T13:28:38.282Z,101254.43
2022-11-07T13:31:34.200Z,101250.84
2022-11-07T13:34:28.207Z,101248.83
2022-11-07T13:37:04.787Z,101250.23
2022-11-07T13:39:37.389Z,101253.45
2022-11-07T13:42:10.837Z,101249.36
2022-11-07T13:44:43.913Z,101250.13
2022-11-07T13:47:22.726Z,101251.11
2022-11-07T13:50:00.290Z,101251.55
2022-11-07T13:52:41.737Z,101247.31
2022-11-07T13:55:20.164Z,101239.90
2022-11-07T13:57:57.116Z,101237.09
2022-11-07T14:00:30.579Z,101236.27
2022-11-07T14:03:03.849Z,101235.05
2022-11-07T14:05:38.975Z,101235.98
2022-11-07T14:08:29.952Z,101239.71
2022-11-07T14:11:02.733Z,101238.63
2022-11-07T14:13:41.246Z,101236.15
2022-11-07T14:16:23.204Z,101235.75
2022-11-07T14:18:59.340Z,101234.73
2022-11-07T14:21:33.420Z,101236.42
2022-11-07T14:24:20.760Z,101237.79
2022-11-07T14:27:05.166Z,101231.88
2022-11-07T14:29:37.562Z,101233.52
2022-11-07T14:32:19.146Z,101235.00
2022-11-07T14:34:53.337Z,101238.23
2022-11-07T14:37:27.284Z,101237.53
2022-11-07T14:40:01.031Z,101243.45
2022-11-07T14:42:33.369Z,101243.81
2022-11-07T14:45:06.601Z,101246.19
2022-11-07T14:47:39.042Z,101248.76
2022-11-07T14:50:18.971Z,101247.61
2022-11-07T14:53:03.409Z,101247.78
2022-11-07T14:55:38.713Z,101242.67
2022-11-07T14:58:14.904Z,101242.50
2022-11-07T15:00:57.000Z,101244.35
2022-11-07T15:03:37.082Z,101240.61
2022-11-07T15:06:21.935Z,101249.68
2022-11-07T15:09:06.345Z,101248.27
2022-11-07T15:11:40.210Z,101252.14
2022-11-07T15:14:26.602Z,101249.84
2022-11-07T15:17:00.962Z,101249.33
2022-11-07T15:19:35.074Z,101246.91
2022-11-07T15:22:08.005Z,101248.77
2022-11-07T15:24:45.495Z,101246.11
2022-11-07T15:27:24.128Z,101244.90
2022-11-07T15:29:58.871Z,101250.70
2022-11-07T15:32:35.035Z,101254.07
2022-11-07T15:35:42.545Z,101252.12
2022-11-07T15:38:17.679Z,101251.20
2022-11-07T15:40:51.616Z,101253.29
2022-11-07T15:43:24.660Z,101257.48
2022-11-07T15:45:57.747Z,101257.34
2022-11-07T15:48:39.796Z,101254.27
2022-11-07T15:51:13.314Z,101256.13
2022-11-07T15:53:45.698Z,101249.17
2022-11-07T15:56:21.653Z,101254.57
2022-11-07T15:58:54.976Z,101259.64
2022-11-07T16:01:27.478Z,101263.47
2022-11-07T16:03:59.819Z,101267.65
2022-11-07T16:06:33.189Z,101266.77
2022-11-07T16:09:11.487Z,101270.02
2022-11-07T16:11:43.751Z,101269.23
2022-11-07T16:14:43.088Z,101272.39
2022-11-07T16:17:13.440Z,101274.03
2022-11-07T16:19:45.730Z,101272.20
2022-11-07T16:22:18.832Z,101273.98
2022-11-07T16:24:51.083Z,101271.98
2022-11-07T16:27:23.445Z,101276.39
2022-11-07T16:29:55.799Z,101275.92
2022-11-07T16:32:28.147Z,101282.56
2022-11-07T16:35:00.482Z,101282.69
2022-11-07T16:37:32.722Z,101287.55
2022-11-07T16:40:05.207Z,101282.86
2022-11-07T16:42:37.693Z,101283.17
2022-11-07T16:45:11.607Z,101282.45
2022-11-07T16:47:45.234Z,101284.67
2022-11-07T16:50:18.576Z,101284.20
2022-11-07T16:52:50.948Z,101285.17
2022-11-07T16:55:23.498Z,101284.71
2022-11-07T16:57:55.711Z,101283.75
2022-11-07T17:00:27.934Z,101281.52
2022-11-07T17:03:00.378Z,101281.34
2022-11-07T17:05:32.776Z,101283.91
2022-11-07T17:08:05.437Z,101286.64
2022-11-07T17:10:37.865Z,101283.77
2022-11-07T17:13:10.192Z,101284.58
2022-11-07T17:15:42.812Z,101283.07
2022-11-07T17:18:22.583Z,101283.48
2022-11-07T17:20:55.869Z,101280.64
2022-11-07T17:23:30.502Z,101282.34
2022-11-07T17:26:03.028Z,101278.71
2022-11-07T17:28:35.262Z,101282.16
2022-11-07T17:31:07.614Z,101282.77
2022-11-07T17:33:40.015Z,101277.36
2022-11-07T17:36:36.806Z,101278.14
2022-11-07T17:39:12.747Z,101272.31
2022-11-07T17:41:46.441Z,101274.20
2022-11-07T17:44:19.636Z,101277.25
2022-11-07T17:46:52.406Z,101278.65
2022-11-07T17:49:24.711Z,101279.38
2022-11-07T17:51:57.427Z,101281.93
2022-11-07T17:54:29.908Z,101283.08
2022-11-07T17:57:03.784Z,101280.76
2022-11-07T17:59:36.147Z,101281.79
2022-11-07T18:02:16.449Z,101279.95
2022-11-07T18:04:49.002Z,101277.36
2022-11-07T18:07:21.285Z,101278.41
2022-11-07T18:09:54.969Z,101278.95
2022-11-07T18:12:27.305Z,101278.77
2022-11-07T18:14:59.521Z,101276.16
2022-11-07T18:17:31.792Z,101275.70
2022-11-07T18:20:04.406Z,101274.96
2022-11-07T18:22:38.031Z,101275.94
2022-11-07T18:25:11.310Z,101268.60
2022-11-07T18:27:43.574Z,101272.16
2022-11-07T18:30:16.733Z,101268.04
2022-11-07T18:32:49.024Z,101268.16
2022-11-07T18:35:21.314Z,101269.56
2022-11-07T18:37:53.586Z,101269.42
2022-11-07T18:40:25.815Z,101269.28
2022-11-07T18:42:58.048Z,101269.61
2022-11-07T18:45:30.273Z,101269.14
2022-11-07T18:48:02.604Z,101273.44
2022-11-07T18:50:37.014Z,101273.81
2022-11-07T18:53:09.599Z,101275.30
2022-11-07T18:55:41.846Z,101276.64
2022-11-07T18:58:14.286Z,101278.03
2022-11-07T19:00:48.590Z,101273.65
2022-11-07T19:03:20.915Z,101276.91
2022-11-07T19:06:00.067Z,101273.64
2022-11-07T19:08:33.151Z,101274.79
2022-11-07T19:11:08.187Z,101279.92
2022-11-07T19:13:42.181Z,101282.54
2022-11-07T19:16:16.766Z,101282.14
2022-11-07T19:18:50.891Z,101282.52
2022-11-07T19:21:24.747Z,101287.90
2022-11-07T19:23:57.116Z,101288.52
2022-11-07T19:26:29.525Z,101284.50
2022-11-07T19:29:02.521Z,101286.55
2022-11-07T19:31:35.183Z,101289.15
2022-11-07T19:34:08.331Z,101291.98
2022-11-07T19:36:40.560Z,101289.67
2022-11-07T19:39:12.934Z,101289.46
2022-11-07T19:41:45.202Z,101291.15
2022-11-07T19:44:17.748Z,101289.98
2022-11-07T19:46:49.995Z,101290.63
2022-11-07T19:49:22.252Z,101291.58
2022-11-07T19:51:55.790Z,101294.27
2022-11-07T19:54:28.028Z,101295.63
2022-11-07T19:57:00.313Z,101297.36
2022-11-07T19:59:32.533Z,101297.43
2022-11-07T20:02:31.188Z,101301.65
2022-11-07T20:04:57.702Z,101305.33
2022-11-07T20:07:30.054Z,101313.73
2022-11-07T20:10:02.353Z,101314.55
2022-11-07T20:12:34.658Z,101318.09
2022-11-07T20:15:08.194Z,101316.15
2022-11-07T20:17:41.709Z,101316.80
2022-11-07T20:20:14.602Z,101315.40
2022-11-07T20:22:48.852Z,101319.30
2022-11-07T20:25:21.434Z,101320.95
2022-11-07T20:27:53.698Z,101324.46
2022-11-07T20:30:26.027Z,101320.27
2022-11-07T20:32:58.271Z,101320.74
2022-11-07T20:35:30.674Z,101321.84
2022-11-07T20:38:02.922Z,101326.70
2022-11-07T20:40:35.224Z,101327.63
2022-11-07T20:43:08.921Z,101324.48
2022-11-07T20:45:41.195Z,101327.18
2022-11-07T20:48:13.607Z,101323.64
2022-11-07T20:50:45.831Z,101325.52
2022-11-07T20:53:18.661Z,101326.86
2022-11-07T20:55:51.171Z,101322.34
2022-11-07T20:58:23.707Z,101323.52
2022-11-07T21:00:55.997Z,101322.50
2022-11-07T21:03:28.757Z,101318.40
2022-11-07T21:06:00.989Z,101320.20
2022-11-07T21:08:37.246Z,101319.52
2022-11-07T21:11:10.427Z,101321.10
2022-11-07T21:13:51.144Z,101324.09
2022-11-07T21:16:26.625Z,101324.22
2022-11-07T21:18:59.467Z,101325.43
2022-11-07T21:21:33.825Z,101327.61
2022-11-07T21:24:06.515Z,101324.73
2022-11-07T21:26:40.192Z,101334.33
2022-11-07T21:29:12.583Z,101334.04
2022-11-07T21:31:45.078Z,101334.34
2022-11-07T21:34:17.347Z,101335.10
2022-11-07T21:36:49.585Z,101337.55
2022-11-07T21:39:21.971Z,101338.73
2022-11-07T21:41:54.197Z,101336.67
2022-11-07T21:44:26.410Z,101336.91
2022-11-07T21:46:58.610Z,101335.82
2022-11-07T21:49:31.028Z,101338.96
2022-11-07T21:52:03.785Z,101339.95
2022-11-07T21:54:36.034Z,101338.40
2022-11-07T21:57:08.429Z,101338.32
2022-11-07T21:59:40.641Z,101336.80
2022-11-07T22:02:15.086Z,101334.90
2022-11-07T22:04:47.488Z,101335.98
2022-11-07T22:07:19.718Z,101336.23
2022-11-07T22:09:52.071Z,101334.27
2022-11-07T22:12:24.459Z,101333.27
2022-11-07T22:14:56.734Z,101334.89
2022-11-07T22:17:29.042Z,101334.70
2022-11-07T22:20:01.324Z,101332.35
2022-11-07T22:22:34.672Z,101325.02
2022-11-07T22:25:08.013Z,101332.97
2022-11-07T22:27:40.240Z,101332.14
2022-11-07T22:30:14.244Z,101330.73
2022-11-07T22:32:46.511Z,101327.16
2022-11-07T22:35:19.138Z,101323.73
2022-11-07T22:37:51.365Z,101321.05
2022-11-07T22:40:23.636Z,101319.77
2022-11-07T22:42:55.841Z,101318.70
2022-11-07T22:45:28.169Z,101321.91
2022-11-07T22:48:00.474Z,101320.52
2022-11-07T22:50:33.179Z,101313.77
2022-11-07T22:53:05.478Z,101316.25
2022-11-07T22:55:41.543Z,101310.86
2022-11-07T22:58:13.871Z,101307.00
2022-11-07T23:00:46.250Z,101303.94
2022-11-07T23:03:18.587Z,101301.52
2022-11-07T23:05:50.989Z,101302.63
2022-11-07T23:08:23.362Z,101301.59
2022-11-07T23:14:00.666Z,101299.61
2022-11-07T23:16:35.648Z,101304.43
2022-11-07T23:19:10.294Z,101301.85
2022-11-07T23:21:42.761Z,101303.15
2022-11-07T23:24:15.511Z,101300.65
2022-11-07T23:26:47.841Z,101300.15
2022-11-07T23:29:23.057Z,101297.92
2022-11-07T23:31:55.394Z,101299.44
2022-11-07T23:34:27.684Z,101299.08
2022-11-07T23:37:00.012Z,101296.32
2022-11-07T23:39:32.524Z,101296.88
2022-11-07T23:42:04.932Z,101297.36
2022-11-07T23:44:58.319Z,101297.67
2022-11-07T23:47:48.111Z,101295.26
2022-11-07T23:50:38.095Z,101296.42
2022-11-07T23:53:31.032Z,101290.61
2022-11-07T23:56:06.138Z,101294.72
2022-11-07T23:58:55.845Z,101290.98
